createdAt,value
2019-02-21T00:02:57.516Z,10.27
2019-02-21T00:08:02.951Z,10.93
2019-02-21T00:13:08.434Z,11.23
2019-02-21T00:18:13.846Z,11.03
2019-02-21T00:23:19.248Z,11.33
2019-02-21T00:28:24.747Z,10.87
2019-02-21T00:33:30.151Z,11.37
2019-02-21T00:38:35.746Z,10.70
2019-02-21T00:43:41.194Z,10.97
2019-02-21T00:48:46.597Z,10.60
2019-02-21T00:53:52.059Z,11.37
2019-02-21T00:58:57.520Z,11.17
2019-02-21T01:04:02.882Z,10.33
2019-02-21T01:09:08.253Z,11.67
2019-02-21T01:14:13.721Z,11.60
2019-02-21T01:19:19.151Z,12.80
2019-02-21T01:24:24.563Z,11.17
2019-02-21T01:29:29.981Z,12.33
2019-02-21T01:34:35.434Z,11.43
2019-02-21T01:39:40.953Z,11.60
2019-02-21T01:44:46.383Z,11.87
2019-02-21T01:49:52.020Z,12.10
2019-02-21T01:54:57.448Z,11.40
2019-02-21T02:00:03.155Z,11.43
2019-02-21T02:05:08.985Z,11.47
2019-02-21T02:10:14.382Z,10.73
2019-02-21T02:15:19.892Z,11.20
2019-02-21T02:20:25.319Z,11.37
2019-02-21T02:25:30.696Z,10.73
2019-02-21T02:30:36.058Z,11.17
2019-02-21T02:35:41.460Z,11.80
2019-02-21T02:40:46.915Z,11.43
2019-02-21T02:45:52.451Z,11.03
2019-02-21T02:50:57.836Z,11.70
2019-02-21T02:56:03.340Z,12.10
2019-02-21T03:01:08.771Z,11.37
2019-02-21T03:06:14.148Z,11.43
2019-02-21T03:11:19.607Z,11.57
2019-02-21T03:16:25.073Z,11.07
2019-02-21T03:21:30.555Z,12.60
2019-02-21T03:26:35.954Z,11.07
2019-02-21T03:31:53.343Z,12.50
2019-02-21T03:36:48.740Z,12.33
2019-02-21T03:41:54.109Z,12.07
2019-02-21T03:46:59.480Z,11.57
2019-02-21T03:52:04.862Z,11.20
2019-02-21T03:57:10.322Z,12.90
2019-02-21T04:02:15.708Z,12.67
2019-02-21T04:07:21.921Z,12.20
2019-02-21T04:12:27.550Z,12.37
2019-02-21T04:17:32.969Z,12.83
2019-02-21T04:22:38.380Z,12.57
2019-02-21T04:27:43.822Z,11.83
2019-02-21T04:32:49.220Z,12.13
2019-02-21T04:37:54.636Z,12.30
2019-02-21T04:43:00.223Z,12.63
2019-02-21T04:48:05.596Z,13.63
2019-02-21T04:53:11.005Z,13.50
2019-02-21T04:58:16.395Z,12.50
2019-02-21T05:03:21.805Z,12.83
2019-02-21T05:08:27.199Z,13.10
2019-02-21T05:13:33.783Z,12.77
2019-02-21T05:18:39.338Z,12.40
2019-02-21T05:23:44.723Z,13.03
2019-02-21T05:28:50.163Z,13.50
2019-02-21T05:34:14.448Z,12.63
2019-02-21T05:39:50.791Z,13.33
2019-02-21T05:45:27.277Z,14.03
2019-02-21T05:50:41.581Z,14.43
2019-02-21T05:56:08.910Z,13.77
2019-02-21T06:01:31.981Z,13.10
2019-02-21T06:06:54.818Z,14.90
2019-02-21T06:12:17.828Z,14.23
2019-02-21T06:17:40.759Z,15.03
2019-02-21T06:23:17.082Z,15.07
2019-02-21T06:28:29.878Z,15.10
2019-02-21T06:33:35.505Z,15.40
2019-02-21T06:38:41.071Z,16.33
2019-02-21T06:43:46.513Z,17.33
2019-02-21T06:48:51.891Z,16.57
2019-02-21T06:53:57.370Z,16.80
2019-02-21T06:59:02.952Z,16.60
2019-02-21T07:04:08.480Z,16.57
2019-02-21T07:09:14.048Z,16.13
2019-02-21T07:14:19.488Z,15.50
2019-02-21T07:19:24.985Z,17.20
2019-02-21T07:24:30.751Z,15.70
2019-02-21T07:29:38.741Z,17.43
2019-02-21T07:34:43.307Z,15.47
2019-02-21T07:39:50.850Z,17.17
2019-02-21T07:44:55.938Z,16.93
2019-02-21T07:50:01.295Z,15.47
2019-02-21T07:55:07.007Z,15.60
2019-02-21T08:00:12.703Z,15.60
2019-02-21T08:05:18.081Z,15.93
2019-02-21T08:10:33.170Z,14.87
2019-02-21T08:15:30.603Z,14.53
2019-02-21T08:20:40.907Z,15.73
2019-02-21T08:25:43.023Z,16.03
2019-02-21T08:30:48.486Z,15.20
2019-02-21T08:35:54.355Z,14.23
2019-02-21T08:40:59.796Z,14.43
2019-02-21T08:46:05.338Z,15.50
2019-02-21T08:51:10.727Z,14.80
2019-02-21T08:56:16.347Z,15.47
2019-02-21T09:01:21.851Z,16.53
2019-02-21T09:06:27.238Z,15.30
2019-02-21T09:11:35.485Z,16.53
2019-02-21T09:16:41.079Z,17.00
2019-02-21T09:21:46.471Z,15.70
2019-02-21T09:26:52.020Z,16.67
2019-02-21T09:31:57.445Z,16.80
2019-02-21T09:37:05.353Z,16.97
2019-02-21T09:42:09.927Z,17.50
2019-02-21T09:47:15.310Z,17.37
2019-02-21T09:52:20.713Z,15.97
2019-02-21T09:57:26.275Z,17.87
2019-02-21T10:02:31.646Z,19.20
2019-02-21T10:07:37.270Z,19.37
2019-02-21T10:12:42.785Z,19.27
2019-02-21T10:17:50.756Z,19.10
2019-02-21T10:22:55.307Z,20.00
2019-02-21T10:28:00.721Z,20.07
2019-02-21T10:33:06.279Z,21.03
2019-02-21T10:38:11.739Z,20.40
2019-02-21T10:43:17.134Z,21.30
2019-02-21T10:48:22.523Z,20.60
2019-02-21T10:53:27.936Z,20.73
2019-02-21T10:58:33.437Z,20.90
2019-02-21T11:03:38.856Z,20.97
2019-02-21T11:08:44.271Z,20.97
2019-02-21T11:13:49.688Z,21.07
2019-02-21T11:18:55.133Z,21.20
2019-02-21T11:24:00.596Z,21.00
2019-02-21T11:29:06.257Z,20.07
2019-02-21T11:34:11.759Z,20.20
2019-02-21T11:39:17.424Z,20.83
2019-02-21T11:44:22.823Z,19.63
2019-02-21T11:49:28.321Z,20.23
2019-02-21T11:54:33.836Z,20.30
2019-02-21T11:59:39.305Z,20.17
2019-02-21T12:04:46.497Z,19.90
2019-02-21T12:09:51.916Z,20.70
2019-02-21T12:14:57.288Z,19.40
2019-02-21T12:20:02.925Z,19.27
2019-02-21T12:25:10.887Z,18.43
2019-02-21T12:30:18.014Z,18.97
2019-02-21T12:35:29.664Z,19.30
2019-02-21T12:40:30.802Z,18.43
2019-02-21T12:45:36.221Z,17.83
2019-02-21T12:50:44.510Z,17.67
2019-02-21T12:55:48.815Z,16.83
2019-02-21T13:00:54.431Z,17.57
2019-02-21T13:05:59.879Z,17.77
2019-02-21T13:11:05.355Z,16.70
2019-02-21T13:16:10.841Z,18.13
2019-02-21T13:21:16.289Z,18.53
2019-02-21T13:26:21.894Z,18.37
2019-02-21T13:31:27.260Z,18.10
2019-02-21T13:36:34.002Z,18.57
2019-02-21T13:41:39.820Z,19.80
2019-02-21T13:46:45.224Z,19.00
2019-02-21T13:51:50.779Z,19.50
2019-02-21T13:56:56.166Z,18.73
2019-02-21T14:02:01.768Z,18.27
2019-02-21T14:07:07.235Z,17.57
2019-02-21T14:12:12.733Z,16.13
2019-02-21T14:17:18.216Z,16.93
2019-02-21T14:22:23.690Z,16.80
2019-02-21T14:27:31.745Z,18.10
2019-02-21T14:32:36.399Z,19.47
2019-02-21T14:37:41.902Z,18.40
2019-02-21T14:42:47.285Z,18.13
2019-02-21T14:47:52.750Z,18.07
2019-02-21T14:52:58.562Z,17.67
2019-02-21T14:58:04.044Z,18.00
2019-02-21T15:03:21.662Z,17.87
2019-02-21T15:08:22.267Z,17.23
2019-02-21T15:13:27.920Z,17.30
2019-02-21T15:18:33.425Z,17.93
2019-02-21T15:23:38.860Z,17.43
2019-02-21T15:28:44.346Z,16.70
2019-02-21T15:33:49.880Z,14.93
2019-02-21T15:38:55.282Z,17.13
2019-02-21T15:44:00.680Z,14.93
2019-02-21T15:49:06.114Z,17.13
2019-02-21T15:54:12.514Z,15.17
2019-02-21T15:59:18.071Z,18.13
2019-02-21T16:04:23.684Z,17.77
2019-02-21T16:09:30.448Z,19.00
2019-02-21T16:14:37.707Z,19.33
2019-02-21T16:19:43.295Z,18.30
2019-02-21T16:24:48.783Z,20.30
2019-02-21T16:29:54.318Z,19.77
2019-02-21T16:34:59.925Z,18.23
2019-02-21T16:40:08.781Z,20.00
2019-02-21T16:45:15.002Z,18.43
2019-02-21T16:50:29.210Z,20.30
2019-02-21T16:55:27.681Z,19.87
2019-02-21T17:00:47.358Z,19.83
2019-02-21T18:19:40.787Z,18.30
2019-02-21T18:24:46.250Z,18.80
2019-02-21T18:29:51.700Z,18.13
2019-02-21T18:34:57.308Z,16.27
2019-02-21T18:40:02.733Z,16.23
2019-02-21T18:45:08.894Z,16.70
2019-02-21T18:50:15.868Z,15.80
2019-02-21T18:55:21.394Z,16.47
2019-02-21T19:00:27.177Z,16.00
2019-02-21T19:05:35.972Z,15.53
2019-02-21T19:24:37.058Z,15.50
2019-02-21T19:29:42.680Z,17.70
2019-02-21T19:34:48.313Z,20.17
2019-02-21T19:39:54.247Z,18.13
2019-02-21T19:45:00.000Z,18.80
2019-02-21T19:50:05.925Z,16.13
2019-02-21T19:55:11.421Z,18.77
2019-02-21T20:00:17.718Z,21.57
2019-02-21T20:05:23.284Z,19.47
2019-02-21T20:10:28.796Z,22.67
2019-02-21T20:15:34.269Z,22.50
2019-02-21T20:20:39.736Z,22.40
2019-02-21T20:25:45.167Z,19.13
2019-02-21T20:30:50.769Z,21.30
2019-02-21T20:35:56.327Z,21.20
2019-02-21T20:41:01.726Z,22.47
2019-02-21T20:46:07.150Z,22.53
2019-02-21T20:51:12.714Z,22.17
2019-02-21T20:56:18.276Z,18.83
2019-02-21T21:01:24.132Z,21.97
2019-02-21T21:06:29.659Z,22.77
2019-02-21T21:11:35.522Z,23.53
2019-02-21T21:16:41.012Z,23.33
2019-02-21T21:21:46.754Z,25.27
2019-02-21T21:26:52.401Z,24.50
2019-02-21T21:31:58.105Z,22.97
2019-02-21T21:37:03.739Z,25.03
2019-02-21T21:42:09.174Z,24.53
2019-02-21T21:47:14.735Z,26.20
2019-02-21T21:52:20.598Z,25.70
2019-02-21T21:57:26.154Z,24.53
2019-02-21T22:02:31.674Z,23.43
2019-02-21T22:07:37.070Z,24.13
2019-02-21T22:12:42.845Z,29.73
2019-02-21T22:17:48.335Z,26.73
2019-02-21T22:22:53.769Z,26.77
2019-02-21T22:27:59.165Z,26.97
2019-02-21T22:33:04.647Z,26.93
2019-02-21T22:38:10.445Z,25.70
2019-02-21T22:43:16.401Z,28.50
2019-02-21T22:48:22.026Z,27.63
2019-02-21T22:53:27.808Z,28.50
2019-02-21T22:58:33.385Z,28.40
2019-02-21T23:03:50.331Z,29.20
2019-02-21T23:08:56.261Z,28.27
2019-02-21T23:14:01.788Z,26.77
2019-02-21T23:19:07.188Z,27.60
2019-02-21T23:24:12.983Z,28.43
2019-02-21T23:29:18.434Z,26.90
2019-02-21T23:34:36.273Z,28.30
2019-02-21T23:39:41.729Z,29.03
2019-02-21T23:44:47.294Z,28.53
2019-02-21T23:49:52.866Z,26.77
2019-02-21T23:54:58.647Z,28.17
